Time;durP1;ratioP1;P1;durP2;ratioP2;P2;SDS_P1;SDS_P2;PMS_P1;PMS_P2;Temp;Humidity;BMP_temperature;BMP_pressure;BME280_temperature;BME280_humidity;BME280_pressure;Samples;Min_cycle;Max_cycle;Signal;HPM_P1;HPM_P2
2021/10/05 00:01:43;;;;;;;11.50;7.68;;;15.00;99.40;;;;;;6301917;22;20066;-77
2021/10/05 00:04:08;;;;;;;10.25;7.97;;;14.90;99.40;;;;;;6301725;22;20326;-76
2021/10/05 00:06:34;;;;;;;14.27;8.70;;;15.00;99.60;;;;;;6302422;22;20004;-77
2021/10/05 00:09:01;;;;;;;12.48;8.32;;;14.90;99.60;;;;;;6300831;22;20087;-78
2021/10/05 00:11:26;;;;;;;11.70;7.95;;;14.90;99.60;;;;;;6301619;22;20103;-76
2021/10/05 00:13:52;;;;;;;13.45;9.13;;;14.90;99.60;;;;;;6302924;22;20045;-78
2021/10/05 00:16:17;;;;;;;10.75;7.57;;;14.90;99.50;;;;;;6302072;22;20004;-78
2021/10/05 00:18:45;;;;;;;11.18;8.30;;;14.90;99.60;;;;;;6301623;22;20007;-76
2021/10/05 00:21:10;;;;;;;12.07;7.90;;;14.90;99.70;;;;;;6273793;22;20073;-77
2021/10/05 00:23:36;;;;;;;12.15;8.43;;;14.90;99.80;;;;;;6301839;22;20414;-77
2021/10/05 00:26:01;;;;;;;14.52;9.45;;;14.90;99.90;;;;;;6302285;22;20074;-78
2021/10/05 00:28:27;;;;;;;10.80;7.97;;;14.90;99.90;;;;;;6273726;22;19999;-76
2021/10/05 00:30:52;;;;;;;12.13;9.07;;;14.90;99.80;;;;;;6300944;22;20031;-77
2021/10/05 00:33:18;;;;;;;12.13;8.90;;;14.90;99.70;;;;;;6274567;22;20022;-77
2021/10/05 00:35:43;;;;;;;14.43;8.52;;;14.90;99.80;;;;;;6301759;22;20383;-77
2021/10/05 00:38:09;;;;;;;12.00;8.85;;;14.90;99.90;;;;;;6300447;22;20007;-78
2021/10/05 00:40:34;;;;;;;11.30;8.05;;;14.90;99.80;;;;;;6301613;22;20060;-77
2021/10/05 00:43:00;;;;;;;10.27;7.82;;;14.90;99.90;;;;;;6300861;22;20003;-77
2021/10/05 00:45:25;;;;;;;9.20;7.88;;;14.90;99.90;;;;;;6302443;22;20003;-75
2021/10/05 00:47:51;;;;;;;13.07;9.45;;;14.90;99.90;;;;;;6301441;22;20002;-77
2021/10/05 00:50:17;;;;;;;11.90;8.18;;;14.90;99.80;;;;;;6301451;22;20008;-76
2021/10/05 00:52:43;;;;;;;11.15;8.57;;;14.90;99.90;;;;;;6302192;22;19999;-77
2021/10/05 00:55:11;;;;;;;12.32;8.80;;;14.90;99.90;;;;;;6300810;22;19996;-76
2021/10/05 00:57:36;;;;;;;11.38;8.15;;;14.90;99.90;;;;;;6301261;22;20010;-76
2021/10/05 01:00:04;;;;;;;12.98;8.70;;;15.00;99.90;;;;;;6301550;22;20049;-77
2021/10/05 01:02:30;;;;;;;12.38;9.15;;;15.00;99.80;;;;;;6300946;22;20038;-77
2021/10/05 01:04:55;;;;;;;11.55;8.75;;;15.00;99.70;;;;;;6302127;22;20014;-76
2021/10/05 01:07:21;;;;;;;11.57;8.77;;;15.00;99.70;;;;;;6301297;22;20007;-77
2021/10/05 01:09:46;;;;;;;13.77;9.57;;;15.00;99.80;;;;;;6300831;22;20031;-76
2021/10/05 01:12:12;;;;;;;11.73;8.75;;;15.00;99.90;;;;;;6301322;22;20007;-77
2021/10/05 01:14:38;;;;;;;14.68;9.60;;;14.90;99.90;;;;;;6300555;22;20100;-76
2021/10/05 01:17:05;;;;;;;15.88;9.10;;;14.90;99.90;;;;;;6301477;22;20406;-77
2021/10/05 01:19:31;;;;;;;13.13;8.85;;;14.90;99.90;;;;;;6301023;22;20004;-77
2021/10/05 01:21:57;;;;;;;13.93;9.20;;;14.90;99.90;;;;;;6300661;22;20003;-78
2021/10/05 01:24:24;;;;;;;12.90;9.07;;;14.90;99.90;;;;;;6301710;22;20048;-77
2021/10/05 01:26:52;;;;;;;13.32;8.98;;;14.90;99.90;;;;;;6273828;22;20011;-78
2021/10/05 01:29:19;;;;;;;12.93;8.68;;;14.90;99.90;;;;;;6298380;22;20065;-77
2021/10/05 01:31:48;;;;;;;11.10;7.75;;;14.90;99.90;;;;;;6300807;22;20007;-77
2021/10/05 01:34:15;;;;;;;12.55;9.13;;;14.90;99.90;;;;;;6300413;22;20003;-76
2021/10/05 01:36:41;;;;;;;14.60;9.70;;;14.80;99.90;;;;;;6301500;22;20011;-76
2021/10/05 01:39:28;;;;;;;12.68;9.45;;;14.80;99.90;;;;;;6300984;22;20417;-76
2021/10/05 01:41:56;;;;;;;12.48;9.55;;;14.80;99.90;;;;;;6300587;22;20010;-75
2021/10/05 01:44:23;;;;;;;13.30;9.85;;;14.80;99.90;;;;;;6301986;22;20007;-76
2021/10/05 01:46:50;;;;;;;15.18;10.77;;;14.80;99.90;;;;;;6300176;22;20303;-77
2021/10/05 01:49:17;;;;;;;13.68;10.60;;;14.80;99.90;;;;;;6300064;22;20032;-76
2021/10/05 01:51:43;;;;;;;13.02;10.18;;;14.70;99.90;;;;;;6300945;22;20064;-77
2021/10/05 01:54:10;;;;;;;14.68;10.50;;;14.70;99.90;;;;;;6301023;22;20373;-76
2021/10/05 01:56:35;;;;;;;13.43;10.00;;;14.70;99.90;;;;;;6301046;22;20421;-76
2021/10/05 01:59:01;;;;;;;16.30;11.15;;;14.70;99.90;;;;;;6272926;22;20010;-76
2021/10/05 02:01:26;;;;;;;11.82;9.45;;;14.60;99.90;;;;;;6300348;22;20065;-76
2021/10/05 02:03:52;;;;;;;14.75;9.68;;;14.70;99.90;;;;;;6302064;22;20027;-76
2021/10/05 02:06:17;;;;;;;12.73;10.02;;;14.70;99.90;;;;;;6298131;22;20074;-76
2021/10/05 02:08:43;;;;;;;15.63;10.13;;;14.60;99.90;;;;;;6300041;22;20009;-77
2021/10/05 02:11:08;;;;;;;12.52;9.70;;;14.60;99.90;;;;;;6300658;22;20006;-76
2021/10/05 02:13:35;;;;;;;15.05;10.65;;;14.70;99.90;;;;;;6300921;22;20333;-76
2021/10/05 02:16:01;;;;;;;16.05;10.27;;;14.70;99.90;;;;;;6302154;22;20626;-76
2021/10/05 02:18:26;;;;;;;12.32;9.30;;;14.70;99.90;;;;;;6301079;22;20595;-75
2021/10/05 02:20:52;;;;;;;13.00;10.05;;;14.70;99.90;;;;;;6300149;22;20004;-76
2021/10/05 02:23:18;;;;;;;13.00;10.38;;;14.70;99.90;;;;;;6300809;22;20045;-77
2021/10/05 02:25:43;;;;;;;13.73;9.63;;;14.70;99.90;;;;;;6300496;22;20462;-76
2021/10/05 02:28:09;;;;;;;14.63;9.70;;;14.70;99.90;;;;;;6300424;22;20042;-76
2021/10/05 02:30:34;;;;;;;17.05;10.75;;;14.70;99.90;;;;;;6273712;22;20007;-76
2021/10/05 02:33:00;;;;;;;11.70;9.57;;;14.70;99.90;;;;;;6301205;22;20000;-77
2021/10/05 02:35:25;;;;;;;14.80;9.93;;;14.70;99.90;;;;;;6301253;22;20006;-77
2021/10/05 02:37:51;;;;;;;13.90;8.88;;;14.70;99.90;;;;;;6300337;22;20263;-76
2021/10/05 02:40:16;;;;;;;14.27;9.05;;;14.70;99.90;;;;;;6300817;22;19999;-76
2021/10/05 02:42:42;;;;;;;14.43;9.32;;;14.70;99.90;;;;;;6301029;22;20000;-77
2021/10/05 02:45:08;;;;;;;10.93;8.55;;;14.60;99.90;;;;;;6274369;22;20409;-77
2021/10/05 02:47:34;;;;;;;14.27;9.98;;;14.60;99.90;;;;;;6300272;22;20118;-76
2021/10/05 02:49:59;;;;;;;12.98;9.00;;;14.60;99.90;;;;;;6301056;22;20061;-76
2021/10/05 02:52:25;;;;;;;11.60;8.68;;;14.60;99.90;;;;;;6273419;22;20006;-77
2021/10/05 02:54:51;;;;;;;9.65;7.60;;;14.60;99.90;;;;;;6300871;22;20381;-77
2021/10/05 02:57:18;;;;;;;10.05;8.02;;;14.60;99.90;;;;;;6301144;22;20006;-77
2021/10/05 02:59:44;;;;;;;11.63;8.20;;;14.60;99.90;;;;;;6299219;22;20004;-78
2021/10/05 03:02:10;;;;;;;10.88;7.50;;;14.60;99.90;;;;;;6273527;22;20044;-76
2021/10/05 03:04:36;;;;;;;10.32;7.47;;;14.60;99.90;;;;;;6301240;22;20508;-76
2021/10/05 03:07:02;;;;;;;10.10;8.00;;;14.60;99.90;;;;;;6300811;22;20135;-75
2021/10/05 03:09:27;;;;;;;9.65;7.63;;;14.60;99.90;;;;;;6300368;22;20007;-75
2021/10/05 03:11:53;;;;;;;8.48;6.93;;;14.60;99.90;;;;;;6301794;22;20030;-75
2021/10/05 03:14:19;;;;;;;12.90;7.68;;;14.60;99.90;;;;;;6303155;22;19999;-76
2021/10/05 03:16:45;;;;;;;7.75;6.25;;;14.60;99.90;;;;;;6302501;22;20106;-77
2021/10/05 03:19:11;;;;;;;8.80;7.15;;;14.50;99.90;;;;;;6302136;22;20035;-78
2021/10/05 03:21:37;;;;;;;8.57;6.22;;;14.50;99.90;;;;;;6302137;22;20007;-78
2021/10/05 03:24:02;;;;;;;12.50;7.43;;;14.50;99.90;;;;;;6302990;22;20324;-78
2021/10/05 03:26:28;;;;;;;9.82;6.82;;;14.50;99.90;;;;;;6302331;22;20011;-77
2021/10/05 03:28:54;;;;;;;8.55;6.47;;;14.40;99.90;;;;;;6302405;22;20004;-77
2021/10/05 03:31:19;;;;;;;8.95;6.40;;;14.40;99.90;;;;;;6302582;22;20692;-76
2021/10/05 03:33:45;;;;;;;10.98;6.80;;;14.40;99.90;;;;;;6274828;22;20141;-78
2021/10/05 03:36:12;;;;;;;7.68;6.15;;;14.40;99.90;;;;;;6303166;22;20011;-78
2021/10/05 03:38:38;;;;;;;8.90;6.07;;;14.40;99.90;;;;;;6301815;22;20319;-78
2021/10/05 03:41:04;;;;;;;9.07;5.50;;;14.40;99.90;;;;;;6301591;22;20382;-78
2021/10/05 03:43:30;;;;;;;6.57;5.25;;;14.40;99.90;;;;;;6302617;22;20010;-76
2021/10/05 03:45:56;;;;;;;9.93;5.18;;;14.40;99.90;;;;;;6302770;22;19999;-77
2021/10/05 03:48:21;;;;;;;7.68;5.20;;;14.40;99.90;;;;;;6301170;22;19999;-77
2021/10/05 03:50:47;;;;;;;6.32;5.13;;;14.40;99.90;;;;;;6302632;22;20357;-77
2021/10/05 03:53:17;;;;;;;8.75;5.57;;;14.40;99.90;;;;;;6302117;22;20074;-78
2021/10/05 03:55:53;;;;;;;7.88;4.80;;;14.40;99.90;;;;;;6303246;22;20031;-77
2021/10/05 03:58:19;;;;;;;7.93;4.70;;;14.40;99.90;;;;;;6300114;22;20007;-76
2021/10/05 04:00:45;;;;;;;6.53;4.70;;;14.40;99.90;;;;;;6301602;22;20027;-76
2021/10/05 04:03:10;;;;;;;10.55;6.18;;;14.30;99.90;;;;;;6303057;22;20045;-76
2021/10/05 04:05:36;;;;;;;4.95;4.07;;;14.30;99.90;;;;;;6302617;22;20002;-76
2021/10/05 04:08:02;;;;;;;6.18;4.22;;;14.30;99.90;;;;;;6301036;22;20078;-76
2021/10/05 04:10:28;;;;;;;9.77;5.22;;;14.30;99.90;;;;;;6302874;22;20003;-75
2021/10/05 04:12:54;;;;;;;5.30;3.53;;;14.30;99.90;;;;;;6302003;22;20000;-77
2021/10/05 04:15:19;;;;;;;6.45;3.88;;;14.30;99.90;;;;;;6302383;22;20440;-78
2021/10/05 04:17:45;;;;;;;8.68;3.35;;;14.30;99.90;;;;;;6301409;22;19996;-79
2021/10/05 04:20:11;;;;;;;5.50;4.28;;;14.30;99.90;;;;;;6302149;22;20375;-78
2021/10/05 04:22:37;;;;;;;5.13;3.50;;;14.30;99.90;;;;;;6301556;22;19999;-78
2021/10/05 04:25:05;;;;;;;6.90;4.05;;;14.30;99.90;;;;;;6303515;22;20068;-78
2021/10/05 04:27:35;;;;;;;11.07;4.20;;;14.30;99.90;;;;;;6301472;22;20007;-76
2021/10/05 04:30:00;;;;;;;9.43;3.72;;;14.30;99.90;;;;;;6300697;22;20021;-78
2021/10/05 04:32:26;;;;;;;5.55;3.65;;;14.20;99.90;;;;;;6300672;22;20086;-77
2021/10/05 04:34:53;;;;;;;6.78;3.80;;;14.20;99.90;;;;;;6287618;22;20080;-78
2021/10/05 04:37:19;;;;;;;5.88;3.38;;;14.20;99.90;;;;;;6300611;22;20064;-78
2021/10/05 04:39:45;;;;;;;6.63;3.88;;;14.20;99.90;;;;;;6298988;22;20610;-78
2021/10/05 04:42:11;;;;;;;4.68;2.85;;;14.20;99.90;;;;;;6299647;22;20002;-78
2021/10/05 04:44:37;;;;;;;5.72;3.80;;;14.20;99.90;;;;;;6300547;22;20077;-78
2021/10/05 04:47:03;;;;;;;7.68;3.33;;;14.10;99.90;;;;;;6272948;22;20002;-76
2021/10/05 04:49:28;;;;;;;6.50;3.83;;;14.00;99.90;;;;;;6299604;22;20011;-77
2021/10/05 04:51:54;;;;;;;7.90;3.58;;;13.90;99.90;;;;;;6299925;22;20003;-78
2021/10/05 04:54:20;;;;;;;5.38;3.78;;;13.90;99.90;;;;;;6299842;22;20570;-76
2021/10/05 04:56:45;;;;;;;8.07;3.67;;;13.90;99.90;;;;;;6299879;22;20074;-78
2021/10/05 04:59:11;;;;;;;6.53;4.18;;;13.80;99.90;;;;;;6298654;22;20385;-78
2021/10/05 05:01:37;;;;;;;4.10;3.47;;;13.80;99.90;;;;;;6298926;22;20003;-78
2021/10/05 05:04:03;;;;;;;8.73;3.55;;;13.90;99.90;;;;;;6300211;22;20400;-77
2021/10/05 05:06:28;;;;;;;5.88;3.40;;;13.80;99.90;;;;;;6299120;22;20010;-78
2021/10/05 05:08:54;;;;;;;8.02;3.20;;;13.80;99.90;;;;;;6298305;22;20503;-78
2021/10/05 05:11:20;;;;;;;5.88;3.13;;;13.80;99.90;;;;;;6296759;22;20044;-79
2021/10/05 05:13:45;;;;;;;7.35;3.28;;;13.70;99.90;;;;;;6299203;22;20000;-77
2021/10/05 05:16:11;;;;;;;5.40;3.22;;;13.70;99.90;;;;;;6296342;22;20029;-79
2021/10/05 05:18:37;;;;;;;10.10;4.03;;;13.70;99.90;;;;;;6297193;22;20003;-80
2021/10/05 05:21:02;;;;;;;5.10;3.25;;;13.70;99.90;;;;;;6297986;22;20523;-79
2021/10/05 05:23:28;;;;;;;3.78;3.10;;;13.70;99.90;;;;;;6298362;22;20076;-77
2021/10/05 05:25:53;;;;;;;4.97;3.13;;;13.70;99.90;;;;;;6299499;22;20003;-79
2021/10/05 05:28:20;;;;;;;4.65;2.95;;;13.70;99.90;;;;;;6297729;22;20088;-80
2021/10/05 05:30:46;;;;;;;4.28;3.10;;;13.80;99.90;;;;;;6298142;22;20006;-78
2021/10/05 05:33:11;;;;;;;5.95;3.30;;;13.80;99.90;;;;;;6298785;22;20019;-77
2021/10/05 05:35:37;;;;;;;5.05;3.33;;;13.80;99.90;;;;;;6298552;22;20010;-77
2021/10/05 05:38:02;;;;;;;6.03;3.60;;;13.80;99.90;;;;;;6297557;22;20388;-77
2021/10/05 05:40:28;;;;;;;7.38;3.50;;;13.80;99.90;;;;;;6299133;22;19995;-77
2021/10/05 05:42:53;;;;;;;4.95;3.17;;;13.80;99.90;;;;;;6298334;22;20186;-77
2021/10/05 05:45:19;;;;;;;8.23;3.40;;;13.80;99.90;;;;;;6299122;22;19992;-78
2021/10/05 05:47:45;;;;;;;6.78;4.13;;;13.80;99.90;;;;;;6296950;22;20000;-78
2021/10/05 05:50:10;;;;;;;4.40;2.88;;;13.80;99.90;;;;;;6296590;22;20015;-77
2021/10/05 05:52:36;;;;;;;7.20;3.60;;;13.70;99.90;;;;;;6297005;22;20091;-77
2021/10/05 05:55:03;;;;;;;4.82;3.35;;;13.80;99.90;;;;;;6299611;22;20248;-77
2021/10/05 05:57:29;;;;;;;6.40;3.53;;;13.80;99.90;;;;;;6299339;22;20325;-78
2021/10/05 05:59:54;;;;;;;6.05;3.75;;;13.70;99.90;;;;;;6298906;22;20003;-77
2021/10/05 06:02:20;;;;;;;7.78;3.00;;;13.70;99.90;;;;;;6299213;22;20413;-77
2021/10/05 06:04:45;;;;;;;5.82;3.25;;;13.80;99.90;;;;;;6299118;22;20042;-77
2021/10/05 06:07:11;;;;;;;4.72;3.00;;;13.80;99.90;;;;;;6299934;22;19999;-77
2021/10/05 06:09:37;;;;;;;7.22;3.53;;;13.80;99.90;;;;;;6298182;22;20034;-78
2021/10/05 06:12:06;;;;;;;4.55;3.13;;;13.80;99.90;;;;;;6298033;22;20010;-77
2021/10/05 06:14:32;;;;;;;6.85;4.55;;;13.80;99.90;;;;;;6299304;22;20006;-77
2021/10/05 06:16:58;;;;;;;5.55;3.10;;;13.90;99.90;;;;;;6298689;22;20000;-77
2021/10/05 06:19:24;;;;;;;6.88;3.53;;;13.90;99.90;;;;;;6298090;22;20587;-77
2021/10/05 06:21:50;;;;;;;5.95;3.38;;;13.90;99.90;;;;;;6298586;22;20203;-80
2021/10/05 06:24:16;;;;;;;7.47;3.72;;;13.90;99.90;;;;;;6298593;22;19996;-79
2021/10/05 06:26:41;;;;;;;7.25;3.67;;;14.00;99.90;;;;;;6297725;22;20012;-78
2021/10/05 06:29:07;;;;;;;8.60;3.22;;;14.00;99.90;;;;;;6297535;22;20043;-78
2021/10/05 06:31:32;;;;;;;7.95;4.15;;;14.00;99.90;;;;;;6297954;22;20090;-78
2021/10/05 06:33:58;;;;;;;7.47;3.88;;;14.00;99.90;;;;;;6298652;22;20003;-78
2021/10/05 06:36:23;;;;;;;5.30;3.85;;;14.00;99.90;;;;;;6298870;22;20003;-78
2021/10/05 06:38:49;;;;;;;9.52;4.40;;;13.90;99.90;;;;;;6298016;22;20004;-78
2021/10/05 06:41:15;;;;;;;6.80;3.55;;;14.00;99.90;;;;;;6297892;22;20022;-78
2021/10/05 06:43:40;;;;;;;7.75;3.80;;;14.00;99.90;;;;;;6298425;22;20003;-78
2021/10/05 06:46:06;;;;;;;9.95;4.38;;;14.10;99.90;;;;;;6300199;22;20083;-79
2021/10/05 06:48:31;;;;;;;5.78;3.30;;;14.10;99.90;;;;;;6299818;22;20105;-79
2021/10/05 06:50:57;;;;;;;6.63;4.63;;;14.10;99.90;;;;;;6300671;22;20030;-79
2021/10/05 06:53:22;;;;;;;7.35;4.47;;;14.10;99.90;;;;;;6300968;22;20003;-78
2021/10/05 06:55:48;;;;;;;7.85;4.22;;;14.10;99.90;;;;;;6301443;22;20046;-79
2021/10/05 06:58:14;;;;;;;10.25;4.15;;;14.10;99.90;;;;;;6300711;22;20003;-77
2021/10/05 07:00:40;;;;;;;6.10;4.00;;;14.10;99.90;;;;;;6300778;22;20033;-77
2021/10/05 07:03:06;;;;;;;8.48;4.70;;;14.10;99.90;;;;;;6300862;22;19996;-78
2021/10/05 07:05:31;;;;;;;7.70;4.53;;;14.10;99.90;;;;;;6301297;22;20005;-77
2021/10/05 07:07:57;;;;;;;11.30;4.15;;;14.20;99.90;;;;;;6300228;22;20491;-78
2021/10/05 07:10:23;;;;;;;8.77;4.30;;;14.30;99.90;;;;;;6301073;22;20018;-77
2021/10/05 07:12:50;;;;;;;7.57;4.15;;;14.20;99.90;;;;;;6301174;22;20422;-78
2021/10/05 07:15:16;;;;;;;6.80;4.10;;;14.20;99.90;;;;;;6301349;22;20000;-77
2021/10/05 07:17:42;;;;;;;7.63;4.28;;;14.20;99.90;;;;;;6299162;22;20349;-79
2021/10/05 07:20:08;;;;;;;5.35;4.25;;;14.20;99.90;;;;;;6300535;22;20042;-78
2021/10/05 07:22:34;;;;;;;7.97;4.40;;;14.20;99.90;;;;;;6300514;22;20102;-78
2021/10/05 07:25:00;;;;;;;8.20;4.80;;;14.20;99.90;;;;;;6300995;22;20055;-79
2021/10/05 07:27:26;;;;;;;6.03;4.70;;;14.20;99.90;;;;;;6273890;22;20098;-78
2021/10/05 07:29:52;;;;;;;7.28;4.68;;;14.20;99.90;;;;;;6299829;22;20015;-78
2021/10/05 07:32:18;;;;;;;6.25;4.45;;;14.20;99.90;;;;;;6300097;22;19999;-78
2021/10/05 07:34:43;;;;;;;7.25;5.43;;;14.20;99.90;;;;;;6300773;22;20002;-78
2021/10/05 07:37:10;;;;;;;8.68;5.38;;;14.20;99.90;;;;;;6301274;22;20464;-79
2021/10/05 07:39:36;;;;;;;7.53;5.88;;;14.20;99.90;;;;;;6299611;22;20007;-78
2021/10/05 07:42:02;;;;;;;6.65;5.43;;;14.30;99.90;;;;;;6299515;22;20426;-78
2021/10/05 07:44:30;;;;;;;8.20;5.82;;;14.30;99.90;;;;;;6300217;22;20078;-79
2021/10/05 07:46:58;;;;;;;10.35;6.05;;;14.30;99.90;;;;;;6300279;22;20499;-79
2021/10/05 07:49:24;;;;;;;6.55;5.32;;;14.40;99.90;;;;;;6298903;22;20003;-78
2021/10/05 07:51:50;;;;;;;9.63;5.43;;;14.40;99.90;;;;;;6298957;22;20003;-79
2021/10/05 07:54:15;;;;;;;6.93;5.20;;;14.30;99.90;;;;;;6299876;22;19995;-83
2021/10/05 07:56:41;;;;;;;7.47;5.30;;;14.30;99.90;;;;;;6300487;22;19999;-78
2021/10/05 07:59:06;;;;;;;7.28;5.95;;;14.30;99.90;;;;;;6299444;22;20007;-82
2021/10/05 08:01:33;;;;;;;7.43;5.53;;;14.30;99.90;;;;;;6299862;22;19995;-81
2021/10/05 08:03:58;;;;;;;7.93;5.03;;;14.30;99.90;;;;;;6300236;22;20078;-82
2021/10/05 08:06:24;;;;;;;11.05;5.72;;;14.30;99.90;;;;;;6298066;22;20039;-81
2021/10/05 08:08:49;;;;;;;8.77;5.63;;;14.30;99.90;;;;;;6298948;22;20011;-81
2021/10/05 08:11:16;;;;;;;7.07;5.30;;;14.30;99.90;;;;;;6299748;22;20469;-81
2021/10/05 08:13:41;;;;;;;9.38;5.28;;;14.30;99.90;;;;;;6300391;22;19999;-80
2021/10/05 08:16:07;;;;;;;7.65;5.80;;;14.20;99.90;;;;;;6300209;22;20029;-81
2021/10/05 08:18:32;;;;;;;11.13;5.43;;;14.20;99.90;;;;;;6272694;22;20007;-81
2021/10/05 08:20:58;;;;;;;6.30;4.78;;;14.20;99.90;;;;;;6299536;22;19995;-82
2021/10/05 08:23:23;;;;;;;7.18;5.30;;;14.10;99.90;;;;;;6299959;22;20069;-83
2021/10/05 08:25:49;;;;;;;5.75;5.13;;;14.10;99.90;;;;;;6301007;22;20068;-83
2021/10/05 08:28:14;;;;;;;9.02;5.55;;;14.10;99.90;;;;;;6299023;22;19996;-81
2021/10/05 08:30:40;;;;;;;6.60;4.70;;;14.20;99.90;;;;;;6299573;22;20010;-80
2021/10/05 08:33:06;;;;;;;6.85;4.97;;;14.20;99.90;;;;;;6299630;22;20086;-80
2021/10/05 08:35:32;;;;;;;5.88;4.68;;;14.20;99.90;;;;;;6300433;22;20010;-80
2021/10/05 08:37:58;;;;;;;5.75;5.03;;;14.20;99.90;;;;;;6272599;22;20418;-83
2021/10/05 08:40:25;;;;;;;7.82;5.03;;;14.30;99.90;;;;;;6299974;22;20367;-80
2021/10/05 08:42:50;;;;;;;6.45;4.97;;;14.30;99.90;;;;;;6298964;22;20552;-81
2021/10/05 08:45:17;;;;;;;5.88;4.50;;;14.30;99.90;;;;;;6300977;22;20001;-82
2021/10/05 08:47:43;;;;;;;6.90;4.75;;;14.30;99.90;;;;;;6299466;22;20074;-79
2021/10/05 08:50:09;;;;;;;5.65;4.45;;;14.40;99.90;;;;;;6299112;22;20045;-80
2021/10/05 08:52:35;;;;;;;6.63;4.43;;;14.40;99.90;;;;;;6299974;22;20007;-80
2021/10/05 08:55:01;;;;;;;4.93;4.18;;;14.40;99.90;;;;;;6299917;22;20074;-80
2021/10/05 08:57:27;;;;;;;4.82;3.78;;;14.40;99.90;;;;;;6300365;22;19999;-80
2021/10/05 08:59:53;;;;;;;6.28;4.90;;;14.50;99.90;;;;;;6299525;22;20011;-82
2021/10/05 09:02:19;;;;;;;4.78;4.25;;;14.50;99.90;;;;;;6300412;22;20002;-82
2021/10/05 09:04:46;;;;;;;7.35;4.57;;;14.50;99.90;;;;;;6274017;22;20011;-81
2021/10/05 09:07:20;;;;;;;6.03;4.28;;;14.50;99.90;;;;;;6299914;22;20003;-81
2021/10/05 09:09:59;;;;;;;5.05;4.15;;;14.60;99.90;;;;;;6298718;22;20011;-82
2021/10/05 09:12:30;;;;;;;4.72;4.07;;;14.60;99.90;;;;;;6272381;22;20000;-80
2021/10/05 09:14:57;;;;;;;8.88;4.63;;;14.60;99.90;;;;;;6297983;22;20007;-82
2021/10/05 09:17:26;;;;;;;5.75;4.22;;;14.70;99.90;;;;;;6272970;22;20673;-80
2021/10/05 09:19:53;;;;;;;3.90;3.53;;;14.70;99.90;;;;;;6298307;22;20094;-80
2021/10/05 09:22:25;;;;;;;6.40;4.55;;;14.70;99.90;;;;;;6299520;22;20331;-80
2021/10/05 09:24:54;;;;;;;6.23;4.03;;;14.70;99.90;;;;;;6300890;22;20003;-79
2021/10/05 09:27:21;;;;;;;5.38;4.30;;;14.70;99.90;;;;;;6298661;22;20019;-82
2021/10/05 09:29:49;;;;;;;6.45;4.63;;;14.70;99.90;;;;;;6298960;22;20018;-80
2021/10/05 09:32:20;;;;;;;5.95;4.20;;;14.70;99.90;;;;;;6299352;22;20023;-81
2021/10/05 09:34:54;;;;;;;4.80;4.22;;;14.70;99.90;;;;;;6299687;22;19995;-81
2021/10/05 09:37:26;;;;;;;5.53;4.45;;;14.70;99.90;;;;;;6300648;22;20006;-81
2021/10/05 09:40:11;;;;;;;5.30;3.92;;;14.70;99.90;;;;;;6297417;22;20047;-80
2021/10/05 09:42:40;;;;;;;5.32;3.75;;;14.70;99.90;;;;;;6298499;22;20361;-81
2021/10/05 09:45:11;;;;;;;7.18;4.20;;;14.70;99.90;;;;;;6299471;22;20000;-81
2021/10/05 09:47:51;;;;;;;6.93;3.80;;;14.60;99.90;;;;;;6270404;22;20129;-83
2021/10/05 09:50:30;;;;;;;4.95;3.63;;;14.60;99.90;;;;;;6298222;22;20064;-82
2021/10/05 09:53:01;;;;;;;4.20;3.80;;;14.60;99.90;;;;;;6271754;22;20327;-82
2021/10/05 09:55:29;;;;;;;7.45;4.43;;;14.60;99.90;;;;;;6299430;22;20025;-80
2021/10/05 09:57:55;;;;;;;6.20;4.78;;;14.60;99.90;;;;;;6270915;22;20866;-80
2021/10/05 10:00:24;;;;;;;6.22;4.95;;;14.60;99.90;;;;;;6297931;22;20030;-81
2021/10/05 10:02:51;;;;;;;5.78;4.93;;;14.50;99.90;;;;;;6298180;22;20007;-81
2021/10/05 10:05:21;;;;;;;7.00;5.22;;;14.50;99.90;;;;;;6271558;22;20398;-82
2021/10/05 10:07:53;;;;;;;9.73;5.30;;;14.60;99.90;;;;;;6297765;22;20003;-80
2021/10/05 10:10:24;;;;;;;6.45;5.53;;;14.60;99.90;;;;;;6269300;22;20030;-82
2021/10/05 10:12:56;;;;;;;8.68;6.38;;;14.60;99.90;;;;;;6298992;22;19999;-82
2021/10/05 10:15:24;;;;;;;6.45;5.47;;;14.60;99.90;;;;;;6298832;22;20122;-82
2021/10/05 10:17:50;;;;;;;9.27;5.82;;;14.60;99.90;;;;;;6298930;22;20203;-82
2021/10/05 10:20:26;;;;;;;6.85;5.68;;;14.60;99.90;;;;;;6298696;22;20038;-82
2021/10/05 10:22:53;;;;;;;6.28;4.97;;;14.60;99.90;;;;;;6300299;22;20003;-82
2021/10/05 10:25:24;;;;;;;6.15;5.55;;;14.60;99.90;;;;;;6300768;22;20003;-82
2021/10/05 10:27:56;;;;;;;7.18;5.55;;;14.60;99.90;;;;;;6300656;22;20507;-82
2021/10/05 10:30:26;;;;;;;9.90;6.05;;;14.60;99.90;;;;;;6300655;22;20060;-81
2021/10/05 10:32:59;;;;;;;6.65;5.15;;;14.60;99.90;;;;;;6301384;22;20030;-81
2021/10/05 10:35:25;;;;;;;6.18;4.88;;;14.60;99.90;;;;;;6273647;22;20041;-81
2021/10/05 10:37:52;;;;;;;6.68;5.32;;;14.50;99.90;;;;;;6300846;22;20003;-82
2021/10/05 10:40:32;;;;;;;6.05;4.80;;;14.60;99.90;;;;;;6300821;22;20006;-80
2021/10/05 10:43:08;;;;;;;5.38;4.80;;;14.50;99.90;;;;;;6300187;22;20003;-81
2021/10/05 10:45:45;;;;;;;6.57;4.72;;;14.50;99.90;;;;;;6301339;22;20597;-79
2021/10/05 10:48:11;;;;;;;6.75;4.80;;;14.40;99.90;;;;;;6301064;22;20749;-81
2021/10/05 10:50:38;;;;;;;5.85;5.07;;;14.40;99.90;;;;;;6300243;22;20072;-81
2021/10/05 10:53:06;;;;;;;5.18;4.65;;;14.40;99.90;;;;;;6273729;22;20409;-81
2021/10/05 10:55:34;;;;;;;5.30;4.43;;;14.40;99.90;;;;;;6301869;22;20061;-81
2021/10/05 10:57:59;;;;;;;6.72;4.65;;;14.40;99.90;;;;;;6271811;22;20007;-81
2021/10/05 11:00:29;;;;;;;4.30;3.90;;;14.50;99.90;;;;;;6273474;22;20033;-81
2021/10/05 11:02:56;;;;;;;5.22;4.40;;;14.50;99.90;;;;;;6273159;22;20003;-81
2021/10/05 11:05:23;;;;;;;5.05;4.00;;;14.50;99.90;;;;;;6272545;22;20417;-83
2021/10/05 11:07:50;;;;;;;5.07;3.30;;;14.50;99.90;;;;;;6272963;22;20006;-82
2021/10/05 11:10:17;;;;;;;4.07;3.42;;;14.50;99.90;;;;;;6299830;22;20004;-81
2021/10/05 11:12:56;;;;;;;3.80;3.28;;;14.50;99.90;;;;;;6300838;22;20493;-80
2021/10/05 11:15:34;;;;;;;3.65;2.92;;;14.50;99.90;;;;;;6300581;22;19996;-82
2021/10/05 11:18:11;;;;;;;3.00;2.47;;;14.60;99.90;;;;;;6298377;22;20118;-80
2021/10/05 11:20:42;;;;;;;3.67;2.65;;;14.50;99.90;;;;;;6298388;22;20068;-81
2021/10/05 11:23:08;;;;;;;3.80;2.50;;;14.50;99.90;;;;;;6273029;22;20029;-81
2021/10/05 11:25:33;;;;;;;2.38;2.17;;;14.40;99.90;;;;;;6300358;22;20410;-80
2021/10/05 11:28:11;;;;;;;4.20;2.40;;;14.50;99.90;;;;;;6272407;22;20011;-81
2021/10/05 11:31:06;;;;;;;2.60;2.10;;;14.50;99.90;;;;;;6300693;22;20407;-81
2021/10/05 11:33:38;;;;;;;2.85;2.10;;;14.50;99.90;;;;;;6267871;22;20003;-84
2021/10/05 11:36:31;;;;;;;2.92;1.80;;;14.60;99.90;;;;;;6273370;22;20003;-82
2021/10/05 11:38:56;;;;;;;;;;;14.70;99.90;;;;;;6294673;22;20003;-83
2021/10/05 11:41:22;;;;;;;2.70;2.10;;;14.70;99.90;;;;;;6299934;22;20233;-81
2021/10/05 11:43:51;;;;;;;2.13;1.92;;;14.70;99.90;;;;;;6272402;22;20010;-81
2021/10/05 11:46:19;;;;;;;2.05;1.80;;;14.70;99.90;;;;;;6300735;22;19999;-81
2021/10/05 11:48:50;;;;;;;2.92;2.05;;;14.80;99.90;;;;;;6300573;22;20050;-82
2021/10/05 11:51:17;;;;;;;2.83;2.22;;;14.80;99.90;;;;;;6300135;22;19998;-83
2021/10/05 11:53:45;;;;;;;2.28;2.08;;;14.90;99.90;;;;;;6299786;22;20010;-81
2021/10/05 11:56:13;;;;;;;3.80;3.13;;;14.90;99.90;;;;;;6273925;22;20037;-81
2021/10/05 11:58:56;;;;;;;3.53;2.90;;;14.80;99.90;;;;;;6299658;22;20007;-81
2021/10/05 12:01:25;;;;;;;3.65;3.05;;;14.70;99.90;;;;;;6299377;22;20393;-82
2021/10/05 12:03:53;;;;;;;3.83;3.42;;;14.70;99.90;;;;;;6299692;22;20007;-83
2021/10/05 12:06:29;;;;;;;4.10;3.22;;;14.70;99.90;;;;;;6300936;22;20010;-80
2021/10/05 12:08:54;;;;;;;3.15;2.70;;;14.70;99.90;;;;;;6272182;22;20043;-84
2021/10/05 12:11:20;;;;;;;3.33;2.95;;;14.70;99.90;;;;;;6271159;22;20061;-82
2021/10/05 12:13:46;;;;;;;3.30;3.00;;;14.70;99.90;;;;;;6299699;22;20079;-82
2021/10/05 12:16:15;;;;;;;3.10;2.63;;;14.60;99.90;;;;;;6273320;22;19995;-82
2021/10/05 12:18:42;;;;;;;4.43;3.00;;;14.60;99.90;;;;;;6298509;22;20078;-82
2021/10/05 12:21:09;;;;;;;3.17;2.88;;;14.50;99.90;;;;;;6299896;22;20000;-81
2021/10/05 12:23:35;;;;;;;4.28;3.40;;;14.50;99.90;;;;;;6301240;22;20019;-84
2021/10/05 12:26:14;;;;;;;6.53;4.35;;;14.50;99.90;;;;;;6299657;22;20041;-83
2021/10/05 12:28:57;;;;;;;4.65;4.15;;;14.50;99.90;;;;;;6300639;22;20007;-82
2021/10/05 12:31:24;;;;;;;5.10;3.90;;;14.60;99.90;;;;;;6301148;22;20022;-83
2021/10/05 12:33:58;;;;;;;6.38;5.10;;;14.60;99.90;;;;;;6303265;22;19999;-83
2021/10/05 12:36:24;;;;;;;8.65;5.78;;;14.60;99.90;;;;;;6274526;22;20006;-83
2021/10/05 12:38:50;;;;;;;9.55;6.30;;;14.60;99.90;;;;;;6272139;22;20007;-81
2021/10/05 12:41:15;;;;;;;8.10;6.50;;;14.60;99.90;;;;;;6299900;22;20078;-82
2021/10/05 12:43:44;;;;;;;8.40;6.80;;;14.60;99.90;;;;;;6299553;22;19999;-82